createdAt,value
2023-01-07T00:00:42.473Z,101059.30
2023-01-07T00:01:44.950Z,101060.05
2023-01-07T00:02:49.000Z,101070.83
2023-01-07T00:03:52.101Z,101057.06
2023-01-07T00:04:54.576Z,101072.69
2023-01-07T00:07:12.253Z,101073.59
2023-01-07T00:08:14.235Z,101070.38
2023-01-07T00:09:17.141Z,101073.17
2023-01-07T00:10:19.737Z,101061.34
2023-01-07T00:11:28.402Z,101061.55
2023-01-07T00:12:30.332Z,101064.48
2023-01-07T00:13:33.121Z,101064.43
2023-01-07T00:14:35.022Z,101068.22
2023-01-07T00:15:36.898Z,101067.81
2023-01-07T00:16:40.078Z,101071.98
2023-01-07T00:17:41.972Z,101078.61
2023-01-07T00:18:45.969Z,101075.30
2023-01-07T00:19:47.865Z,101071.98
2023-01-07T00:20:49.966Z,101064.61
2023-01-07T00:21:51.948Z,101067.07
2023-01-07T00:22:53.829Z,101066.56
2023-01-07T00:24:01.578Z,101066.33
2023-01-07T00:25:04.706Z,101064.55
2023-01-07T00:26:14.713Z,101059.63
2023-01-07T00:27:16.759Z,101060.73
2023-01-07T00:28:19.179Z,101055.35
2023-01-07T00:29:21.098Z,101049.02
2023-01-07T00:30:23.283Z,101051.81
2023-01-07T00:31:31.303Z,101062.38
2023-01-07T00:32:33.404Z,101058.42
2023-01-07T00:33:35.388Z,101065.92
2023-01-07T00:34:37.398Z,101046.56
2023-01-07T00:35:39.369Z,101060.55
2023-01-07T00:36:43.995Z,101069.36
2023-01-07T00:37:46.847Z,101068.66
2023-01-07T00:38:54.947Z,101074.92
2023-01-07T00:39:56.948Z,101078.73
2023-01-07T00:41:00.497Z,101076.05
2023-01-07T00:42:03.487Z,101078.05
2023-01-07T00:43:05.428Z,101073.54
2023-01-07T00:44:07.567Z,101080.46
2023-01-07T00:45:10.704Z,101080.52
2023-01-07T00:46:15.121Z,101078.52
2023-01-07T00:47:17.355Z,101094.95
2023-01-07T00:48:19.645Z,101092.81
2023-01-07T00:49:21.560Z,101092.81
2023-01-07T00:50:27.152Z,101092.36
2023-01-07T00:51:29.143Z,101087.34
2023-01-07T00:52:31.082Z,101084.08
2023-01-07T00:53:33.045Z,101088.22
2023-01-07T00:54:34.920Z,101094.08
2023-01-07T00:55:37.054Z,101093.68
2023-01-07T00:56:39.238Z,101099.05
2023-01-07T00:57:43.831Z,101094.52
2023-01-07T00:58:46.098Z,101102.75
2023-01-07T00:59:48.369Z,101101.73
2023-01-07T01:00:56.025Z,101092.54
2023-01-07T01:01:58.227Z,101099.91
2023-01-07T01:03:00.321Z,101093.63
2023-01-07T01:04:03.838Z,101096.31
2023-01-07T01:05:06.991Z,101089.73
2023-01-07T01:06:14.818Z,101095.27
2023-01-07T01:07:16.876Z,101093.45
2023-01-07T01:08:19.157Z,101091.84
2023-01-07T01:09:21.222Z,101081.45
2023-01-07T01:10:23.203Z,101097.84
2023-01-07T01:11:25.064Z,101085.97
2023-01-07T01:12:27.341Z,101096.52
2023-01-07T01:13:29.269Z,101093.71
2023-01-07T01:14:32.132Z,101102.39
2023-01-07T01:15:35.170Z,101097.69
2023-01-07T01:16:37.205Z,101103.61
2023-01-07T01:17:39.807Z,101105.16
2023-01-07T01:18:43.971Z,101104.51
2023-01-07T01:19:46.019Z,101108.59
2023-01-07T01:20:48.090Z,101112.53
2023-01-07T01:21:49.975Z,101110.19
2023-01-07T01:22:52.288Z,101106.09
2023-01-07T01:23:54.185Z,101105.67
2023-01-07T01:24:56.237Z,101106.53
2023-01-07T01:26:04.867Z,101103.27
2023-01-07T01:27:06.835Z,101110.92
2023-01-07T01:28:08.844Z,101113.20
2023-01-07T01:29:11.000Z,101108.57
2023-01-07T01:30:13.220Z,101106.08
2023-01-07T01:31:15.323Z,101099.97
2023-01-07T01:32:17.340Z,101101.73
2023-01-07T01:33:19.211Z,101101.89
2023-01-07T01:34:21.141Z,101097.55
2023-01-07T01:35:23.315Z,101103.45
2023-01-07T01:36:25.936Z,101101.16
2023-01-07T01:37:27.907Z,101097.17
2023-01-07T01:38:30.495Z,101099.25
2023-01-07T01:39:34.086Z,101094.40
2023-01-07T01:40:36.404Z,101091.03
2023-01-07T01:41:38.423Z,101097.20
2023-01-07T01:42:40.529Z,101096.86
2023-01-07T01:43:43.360Z,101089.50
2023-01-07T01:44:49.038Z,101095.36
2023-01-07T01:45:51.702Z,101091.83
2023-01-07T01:46:54.129Z,101094.52
2023-01-07T01:48:00.001Z,101094.52
2023-01-07T01:49:11.219Z,101100.70
2023-01-07T01:50:20.958Z,101094.83
2023-01-07T01:51:26.660Z,101089.99
2023-01-07T01:53:46.879Z,101084.27
2023-01-07T01:54:52.518Z,101088.41
2023-01-07T01:56:01.268Z,101093.00
2023-01-07T01:57:08.854Z,101088.81
2023-01-07T01:58:14.750Z,101093.80
2023-01-07T01:59:20.218Z,101100.02
2023-01-07T02:00:22.237Z,101104.58
2023-01-07T02:01:25.219Z,101102.88
2023-01-07T02:02:37.115Z,101101.45
2023-01-07T02:03:39.399Z,101103.31
2023-01-07T02:04:42.168Z,101104.37
2023-01-07T02:05:45.784Z,101108.14
2023-01-07T02:06:57.611Z,101103.91
2023-01-07T02:08:00.208Z,101113.98
2023-01-07T02:09:04.539Z,101104.48
2023-01-07T02:10:14.028Z,101097.17
2023-01-07T02:11:42.851Z,101097.33
2023-01-07T02:13:11.364Z,101098.23
2023-01-07T02:14:22.827Z,101098.29
2023-01-07T02:15:26.634Z,101100.02
2023-01-07T02:16:50.875Z,101098.39
2023-01-07T02:18:30.552Z,101095.98
2023-01-07T02:19:58.732Z,101101.34
2023-01-07T02:21:38.262Z,101099.66
2023-01-07T02:22:43.968Z,101094.55
2023-01-07T02:24:04.945Z,101091.28
2023-01-07T02:25:22.984Z,101089.73
2023-01-07T02:26:40.995Z,101102.23
2023-01-07T02:28:01.924Z,101100.64
2023-01-07T02:29:27.882Z,101098.37
2023-01-07T02:30:33.881Z,101094.25
2023-01-07T02:32:05.755Z,101098.29
2023-01-07T02:33:09.497Z,101095.80
2023-01-07T02:34:20.949Z,101091.62
2023-01-07T02:35:42.094Z,101094.47
2023-01-07T02:38:23.905Z,101092.77
2023-01-07T02:39:29.572Z,101103.20
2023-01-07T02:40:47.105Z,101091.39
2023-01-07T02:41:52.835Z,101095.80
2023-01-07T02:43:13.439Z,101093.41
2023-01-07T02:44:51.151Z,101093.45
2023-01-07T02:46:24.433Z,101092.59
2023-01-07T02:47:39.361Z,101098.07
2023-01-07T02:48:41.620Z,101096.72
2023-01-07T02:49:45.983Z,101091.90
2023-01-07T02:50:48.058Z,101095.50
2023-01-07T02:51:50.343Z,101095.78
2023-01-07T02:52:52.412Z,101099.97
2023-01-07T02:53:54.510Z,101095.45
2023-01-07T02:55:06.548Z,101105.10
2023-01-07T02:56:19.218Z,101103.73
2023-01-07T02:57:27.757Z,101101.00
2023-01-07T02:58:52.941Z,101105.55
2023-01-07T03:01:30.701Z,101100.31
2023-01-07T03:02:51.800Z,101112.95
2023-01-07T03:04:27.595Z,101114.19
2023-01-07T03:05:33.362Z,101111.16
2023-01-07T03:06:41.962Z,101115.49
2023-01-07T03:07:56.302Z,101110.48
2023-01-07T03:09:01.981Z,101115.95
2023-01-07T03:10:26.274Z,101115.69
2023-01-07T03:11:31.959Z,101110.92
2023-01-07T03:12:37.646Z,101111.57
2023-01-07T03:13:57.358Z,101106.48
2023-01-07T03:15:06.230Z,101107.67
2023-01-07T03:16:25.368Z,101108.35
2023-01-07T03:19:02.993Z,101112.98
2023-01-07T03:20:07.241Z,101121.97
2023-01-07T03:21:15.688Z,101116.93
2023-01-07T03:22:21.644Z,101124.59
2023-01-07T03:23:27.285Z,101122.02
2023-01-07T03:24:31.803Z,101120.98
2023-01-07T03:25:37.427Z,101119.94
2023-01-07T03:26:49.269Z,101120.16
2023-01-07T03:27:53.595Z,101119.27
2023-01-07T03:28:58.617Z,101120.91
2023-01-07T03:30:04.100Z,101122.92
2023-01-07T03:31:09.820Z,101116.98
2023-01-07T03:32:30.058Z,101116.87
2023-01-07T03:33:38.676Z,101117.28
2023-01-07T03:34:42.716Z,101116.49
2023-01-07T03:35:48.386Z,101113.11
2023-01-07T03:36:53.999Z,101120.64
2023-01-07T03:38:00.818Z,101121.58
2023-01-07T03:39:06.280Z,101114.52
2023-01-07T03:40:11.449Z,101113.06
2023-01-07T03:41:13.483Z,101115.11
2023-01-07T03:42:19.166Z,101124.52
2023-01-07T03:43:22.956Z,101129.02
2023-01-07T03:44:26.451Z,101118.01
2023-01-07T03:45:29.068Z,101110.30
2023-01-07T03:46:33.596Z,101116.49
2023-01-07T03:47:37.531Z,101115.73
2023-01-07T03:48:39.456Z,101113.66
2023-01-07T03:49:41.452Z,101116.11
2023-01-07T03:50:43.675Z,101111.84
2023-01-07T03:51:45.724Z,101112.70
2023-01-07T03:52:48.478Z,101110.97
2023-01-07T03:53:50.688Z,101113.00
2023-01-07T03:54:52.557Z,101112.98
2023-01-07T03:55:54.470Z,101116.53
2023-01-07T03:56:56.438Z,101111.73
2023-01-07T03:58:01.352Z,101118.52
2023-01-07T03:59:03.429Z,101119.77
2023-01-07T04:00:08.482Z,101114.66
2023-01-07T04:01:10.538Z,101119.27
2023-01-07T04:02:12.742Z,101123.09
2023-01-07T04:03:14.817Z,101123.38
2023-01-07T04:04:17.755Z,101122.56
2023-01-07T04:05:19.770Z,101116.75
2023-01-07T04:06:22.060Z,101125.25
2023-01-07T04:07:24.047Z,101125.19
2023-01-07T04:08:27.445Z,101117.37
2023-01-07T04:09:29.312Z,101131.02
2023-01-07T04:10:31.306Z,101134.20
2023-01-07T04:11:33.418Z,101136.11
2023-01-07T04:12:35.789Z,101139.48
2023-01-07T04:13:37.804Z,101139.77
2023-01-07T04:14:39.693Z,101143.64
2023-01-07T04:15:41.565Z,101135.84
2023-01-07T04:16:44.391Z,101143.30
2023-01-07T04:17:46.429Z,101143.21
2023-01-07T04:18:48.332Z,101150.86
2023-01-07T04:19:50.231Z,101143.52
2023-01-07T04:20:52.311Z,101149.63
2023-01-07T04:21:54.196Z,101152.30
2023-01-07T04:22:56.056Z,101151.72
2023-01-07T04:23:57.937Z,101152.17
2023-01-07T04:25:00.242Z,101150.80
2023-01-07T04:26:02.417Z,101133.99
2023-01-07T04:27:04.783Z,101144.94
2023-01-07T04:28:07.199Z,101148.38
2023-01-07T04:29:12.314Z,101144.94
2023-01-07T04:30:15.016Z,101149.84
2023-01-07T04:31:17.106Z,101150.94
2023-01-07T04:32:19.085Z,101147.21
2023-01-07T04:33:20.978Z,101155.09
2023-01-07T04:34:23.624Z,101145.19
2023-01-07T04:35:26.725Z,101144.32
2023-01-07T04:36:29.272Z,101146.35
2023-01-07T04:37:31.396Z,101148.44
2023-01-07T04:38:33.405Z,101140.98
2023-01-07T04:39:35.420Z,101147.45
2023-01-07T04:40:37.439Z,101146.59
2023-01-07T04:41:39.449Z,101146.83
2023-01-07T04:42:41.649Z,101153.94
2023-01-07T04:43:43.651Z,101153.02
2023-01-07T04:44:45.705Z,101149.72
2023-01-07T04:45:47.806Z,101158.56
2023-01-07T04:46:49.930Z,101151.48
2023-01-07T04:47:56.641Z,101154.42
2023-01-07T04:48:58.568Z,101162.92
2023-01-07T04:50:00.616Z,101145.30
2023-01-07T04:51:03.783Z,101153.25
2023-01-07T04:52:05.682Z,101156.69
2023-01-07T04:53:08.135Z,101154.17
2023-01-07T04:54:10.241Z,101158.95
2023-01-07T04:55:12.118Z,101156.25
2023-01-07T04:56:15.498Z,101153.50
2023-01-07T04:57:17.576Z,101161.02
2023-01-07T04:58:19.966Z,101163.25
2023-01-07T04:59:22.367Z,101160.09
2023-01-07T05:00:24.972Z,101160.96
2023-01-07T05:01:27.031Z,101161.98
2023-01-07T05:02:29.966Z,101165.23
2023-01-07T05:03:32.783Z,101162.66
2023-01-07T05:04:34.775Z,101163.13
2023-01-07T05:05:38.416Z,101164.86
2023-01-07T05:06:40.538Z,101166.49
2023-01-07T05:07:42.735Z,101164.12
2023-01-07T05:08:44.610Z,101166.49
2023-01-07T05:09:46.699Z,101164.64
2023-01-07T05:10:50.134Z,101165.63
2023-01-07T05:11:52.036Z,101169.64
2023-01-07T05:12:53.948Z,101163.80
2023-01-07T05:13:59.428Z,101160.18
2023-01-07T05:15:05.045Z,101167.14
2023-01-07T05:16:07.440Z,101167.08
2023-01-07T05:17:09.422Z,101172.14
2023-01-07T05:18:11.631Z,101171.89
2023-01-07T05:19:13.682Z,101169.39
2023-01-07T05:20:17.054Z,101170.06
2023-01-07T05:21:19.065Z,101166.76
2023-01-07T05:22:21.214Z,101172.02
2023-01-07T05:23:23.859Z,101179.65
2023-01-07T05:24:25.747Z,101176.37
2023-01-07T05:25:27.624Z,101173.52
2023-01-07T05:26:30.365Z,101176.13
2023-01-07T05:27:32.411Z,101173.52
2023-01-07T05:28:34.819Z,101180.58
2023-01-07T05:29:37.236Z,101182.34
2023-01-07T05:30:39.716Z,101184.66
2023-01-07T05:31:41.972Z,101185.64
2023-01-07T05:32:44.064Z,101193.15
2023-01-07T05:33:45.957Z,101195.66
2023-01-07T05:34:47.834Z,101190.71
2023-01-07T05:35:49.735Z,101198.28
2023-01-07T05:36:51.815Z,101193.21
2023-01-07T05:37:53.707Z,101192.22
2023-01-07T05:38:55.603Z,101199.53
2023-01-07T05:39:58.577Z,101202.35
2023-01-07T05:41:00.597Z,101196.23
2023-01-07T05:42:02.784Z,101202.87
2023-01-07T05:43:04.676Z,101201.30
2023-01-07T05:44:06.569Z,101203.67
2023-01-07T05:45:09.631Z,101205.30
2023-01-07T05:46:11.998Z,101214.39
2023-01-07T05:47:14.058Z,101207.41
2023-01-07T05:48:15.985Z,101216.17
2023-01-07T05:49:18.632Z,101213.41
2023-01-07T05:50:20.821Z,101217.17
2023-01-07T05:51:22.821Z,101209.92
2023-01-07T05:52:24.875Z,101209.19
2023-01-07T05:53:26.947Z,101217.69
2023-01-07T05:54:29.017Z,101216.05
2023-01-07T05:55:30.992Z,101219.45
2023-01-07T05:56:33.071Z,101222.56
2023-01-07T05:57:34.947Z,101229.72
2023-01-07T05:58:36.999Z,101233.39
2023-01-07T05:59:39.091Z,101240.72
2023-01-07T06:00:41.274Z,101242.95
2023-01-07T06:01:43.143Z,101236.63
2023-01-07T06:02:45.017Z,101236.95
2023-01-07T06:03:46.978Z,101229.52
2023-01-07T06:04:49.802Z,101236.42
2023-01-07T06:05:52.548Z,101235.52
2023-01-07T06:06:54.971Z,101240.27
2023-01-07T06:07:56.938Z,101237.22
2023-01-07T06:08:59.185Z,101241.61
2023-01-07T06:10:02.901Z,101245.39
2023-01-07T06:11:07.356Z,101244.85
2023-01-07T06:12:10.159Z,101246.84
2023-01-07T06:13:12.087Z,101249.98
2023-01-07T06:14:14.595Z,101252.68
2023-01-07T06:15:17.712Z,101254.55
2023-01-07T06:16:20.736Z,101251.17
2023-01-07T06:17:22.806Z,101247.68
2023-01-07T06:18:24.946Z,101250.24
2023-01-07T06:19:26.855Z,101253.35
2023-01-07T06:20:29.010Z,101255.38
2023-01-07T06:21:31.283Z,101258.48
2023-01-07T06:22:33.166Z,101252.94
2023-01-07T06:23:35.059Z,101258.88
2023-01-07T06:24:37.245Z,101262.14
2023-01-07T06:25:40.050Z,101260.25
2023-01-07T06:26:42.361Z,101263.27
2023-01-07T06:27:44.226Z,101260.55
2023-01-07T06:28:46.258Z,101264.70
2023-01-07T06:29:48.200Z,101258.07
2023-01-07T06:30:50.439Z,101265.77
2023-01-07T06:31:52.384Z,101257.68
2023-01-07T06:32:54.261Z,101264.81
2023-01-07T06:33:56.143Z,101268.20
2023-01-07T06:34:58.065Z,101270.20
2023-01-07T06:36:00.109Z,101258.88
2023-01-07T06:37:02.575Z,101262.68
2023-01-07T06:38:04.449Z,101269.88
2023-01-07T06:39:06.358Z,101272.64
2023-01-07T06:40:09.652Z,101264.33
2023-01-07T06:41:13.348Z,101270.07
2023-01-07T06:42:15.253Z,101263.47
2023-01-07T06:43:17.138Z,101272.14
2023-01-07T06:44:19.287Z,101279.51
2023-01-07T06:45:21.472Z,101268.38
2023-01-07T06:46:23.656Z,101268.38
2023-01-07T06:47:25.742Z,101280.51
2023-01-07T06:48:27.786Z,101284.97
2023-01-07T06:49:29.715Z,101285.58
2023-01-07T06:50:31.844Z,101285.77
2023-01-07T06:51:33.921Z,101282.67
2023-01-07T06:52:36.311Z,101278.38
2023-01-07T06:53:38.345Z,101280.38
2023-01-07T06:54:40.261Z,101286.64
2023-01-07T06:55:50.818Z,101280.20
2023-01-07T06:56:52.961Z,101286.97
2023-01-07T06:57:54.845Z,101287.91
2023-01-07T06:58:57.415Z,101289.94
2023-01-07T06:59:59.419Z,101295.93
2023-01-07T07:01:08.537Z,101292.56
2023-01-07T07:02:19.625Z,101293.56
2023-01-07T07:03:22.104Z,101294.63
2023-01-07T07:04:24.894Z,101296.06
2023-01-07T07:05:27.983Z,101291.45
2023-01-07T07:06:30.948Z,101295.88
2023-01-07T07:07:34.388Z,101302.89
2023-01-07T07:08:36.675Z,101297.45
2023-01-07T07:09:39.640Z,101305.86
2023-01-07T07:10:41.682Z,101298.22
2023-01-07T07:11:43.921Z,101306.17
2023-01-07T07:12:46.110Z,101299.84
2023-01-07T07:13:48.193Z,101300.00
2023-01-07T07:14:50.152Z,101301.84
2023-01-07T07:15:52.206Z,101303.83
2023-01-07T07:16:54.347Z,101303.95
2023-01-07T07:17:56.579Z,101311.37
2023-01-07T07:18:58.565Z,101308.91
2023-01-07T07:20:00.597Z,101304.59
2023-01-07T07:21:02.827Z,101314.41
2023-01-07T07:22:04.957Z,101318.63
2023-01-07T07:23:06.952Z,101316.84
2023-01-07T07:24:10.014Z,101307.89
2023-01-07T07:25:12.332Z,101320.48
2023-01-07T07:26:15.017Z,101311.97
2023-01-07T07:27:17.131Z,101323.37
2023-01-07T07:28:19.157Z,101327.11
2023-01-07T07:29:21.898Z,101320.73
2023-01-07T07:30:47.422Z,101324.60
2023-01-07T07:31:29.516Z,101324.33
2023-01-07T07:32:31.656Z,101324.11
2023-01-07T07:33:34.077Z,101326.98
2023-01-07T07:34:36.179Z,101330.23
2023-01-07T07:35:38.163Z,101322.83
2023-01-07T07:36:40.239Z,101336.70
2023-01-07T07:37:42.235Z,101327.46
2023-01-07T07:38:44.124Z,101326.53
2023-01-07T07:39:46.032Z,101325.13
2023-01-07T07:40:48.154Z,101329.23
2023-01-07T07:41:50.051Z,101328.23
2023-01-07T07:43:11.424Z,101329.70
2023-01-07T07:43:55.864Z,101339.15
2023-01-07T07:44:57.749Z,101341.51
2023-01-07T07:45:59.617Z,101339.66
2023-01-07T07:47:59.185Z,101336.46
2023-01-07T07:49:01.365Z,101337.18
2023-01-07T07:50:04.505Z,101345.34
2023-01-07T07:51:06.919Z,101347.11
2023-01-07T07:52:09.017Z,101339.72
2023-01-07T07:53:10.907Z,101346.74
2023-01-07T07:54:12.779Z,101343.18
2023-01-07T07:55:20.723Z,101337.05
2023-01-07T07:56:19.140Z,101338.66
2023-01-07T07:57:21.007Z,101341.80
2023-01-07T07:58:23.198Z,101348.20
2023-01-07T07:59:25.309Z,101354.78
2023-01-07T08:00:27.940Z,101350.77
2023-01-07T08:01:33.938Z,101354.14
2023-01-07T08:02:36.851Z,101351.02
2023-01-07T08:03:38.852Z,101351.38
2023-01-07T08:04:40.936Z,101360.27
2023-01-07T08:05:44.838Z,101356.31
2023-01-07T08:06:46.891Z,101357.34
2023-01-07T10:14:46.874Z,101322.94
2023-01-07T10:16:04.778Z,101326.37
2023-01-07T10:17:17.224Z,101330.11
2023-01-07T10:18:22.903Z,101335.31
2023-01-07T10:19:47.255Z,101327.73
2023-01-07T10:21:19.265Z,101332.75
2023-01-07T10:22:25.742Z,101330.89
2023-01-07T10:23:31.537Z,101332.87
2023-01-07T10:24:37.435Z,101334.70
2023-01-07T10:25:46.867Z,101340.91
2023-01-07T10:26:52.723Z,101333.86
2023-01-07T10:27:58.530Z,101334.63
2023-01-07T10:29:13.680Z,101332.98
2023-01-07T10:31:30.622Z,101335.89
2023-01-07T10:32:34.308Z,101337.50
2023-01-07T10:33:39.348Z,101342.70
2023-01-07T10:34:44.167Z,101341.28
2023-01-07T10:35:49.541Z,101339.96
2023-01-07T10:37:07.142Z,101335.69
2023-01-07T10:39:41.365Z,101331.08
2023-01-07T10:40:49.933Z,101340.97
2023-01-07T10:42:14.172Z,101342.47
2023-01-07T10:43:41.262Z,101333.92
2023-01-07T10:44:52.844Z,101332.04
2023-01-07T10:46:05.029Z,101338.41
2023-01-07T10:47:22.618Z,101336.94
2023-01-07T10:48:45.121Z,101333.27
2023-01-07T10:50:03.134Z,101334.61
2023-01-07T10:51:18.092Z,101337.18
2023-01-07T10:52:26.581Z,101339.16
2023-01-07T10:53:32.273Z,101338.16
2023-01-07T10:55:07.155Z,101342.32
2023-01-07T10:56:37.574Z,101339.57
2023-01-07T10:57:41.449Z,101333.65
2023-01-07T10:58:45.685Z,101337.42
2023-01-07T10:59:54.953Z,101334.67
2023-01-07T11:00:57.816Z,101335.05
2023-01-07T11:02:03.298Z,101338.64
2023-01-07T11:03:12.031Z,101332.97
2023-01-07T11:04:15.965Z,101334.48
2023-01-07T11:05:18.971Z,101334.16
2023-01-07T11:06:40.033Z,101331.87
2023-01-07T11:07:45.877Z,101333.53
2023-01-07T11:08:48.009Z,101330.90
2023-01-07T11:09:51.899Z,101330.34
2023-01-07T11:10:54.012Z,101328.55
2023-01-07T11:11:59.576Z,101337.92
2023-01-07T11:13:14.189Z,101331.32
2023-01-07T11:14:22.590Z,101334.13
2023-01-07T11:15:31.097Z,101333.44
2023-01-07T11:17:56.215Z,101329.22
2023-01-07T11:19:07.740Z,101323.72
2023-01-07T11:20:10.475Z,101330.57
2023-01-07T11:21:43.752Z,101318.81
2023-01-07T11:22:29.674Z,101323.16
2023-01-07T11:23:33.467Z,101313.14
2023-01-07T11:24:36.497Z,101326.59
2023-01-07T11:25:40.400Z,101320.58
2023-01-07T11:26:43.151Z,101328.35
2023-01-07T11:27:45.308Z,101325.72
2023-01-07T11:28:53.898Z,101326.47
2023-01-07T11:30:08.535Z,101322.31
2023-01-07T11:31:12.284Z,101323.78
2023-01-07T11:32:23.839Z,101319.42
2023-01-07T11:34:01.351Z,101322.43
2023-01-07T11:35:01.640Z,101323.95
2023-01-07T11:36:05.775Z,101323.76
2023-01-07T11:37:10.318Z,101324.56
2023-01-07T11:38:30.685Z,101328.73
2023-01-07T11:39:35.566Z,101326.53
2023-01-07T11:40:38.829Z,101323.16
2023-01-07T11:41:54.042Z,101324.68
2023-01-07T11:43:05.592Z,101325.25
2023-01-07T11:44:11.370Z,101325.61
2023-01-07T11:45:25.886Z,101323.33
2023-01-07T11:46:28.537Z,101323.44
2023-01-07T11:47:31.153Z,101331.85
2023-01-07T11:48:39.188Z,101330.87
2023-01-07T11:49:45.056Z,101328.59
2023-01-07T11:50:56.905Z,101338.21
2023-01-07T11:51:58.998Z,101340.38
2023-01-07T11:53:07.901Z,101337.86
2023-01-07T11:54:19.638Z,101272.43
2023-01-07T11:55:22.515Z,101343.59
2023-01-07T11:56:28.026Z,101334.72
2023-01-07T11:57:30.023Z,101340.25
2023-01-07T11:58:38.415Z,101341.39
2023-01-07T11:59:40.439Z,101334.07
2023-01-07T12:00:42.501Z,101338.80
2023-01-07T12:01:54.205Z,101334.55
2023-01-07T12:03:05.143Z,101338.59
2023-01-07T12:04:14.108Z,101331.92
2023-01-07T12:05:25.524Z,101332.72
2023-01-07T12:06:35.448Z,101340.44
2023-01-07T12:07:38.035Z,101334.67
2023-01-07T12:08:42.571Z,101341.84
2023-01-07T12:09:45.642Z,101340.67
2023-01-07T12:10:56.241Z,101338.80
2023-01-07T12:12:01.841Z,101349.05
2023-01-07T12:13:07.507Z,101338.80
2023-01-07T12:14:18.987Z,101337.06
2023-01-07T12:15:22.717Z,101344.66
2023-01-07T12:16:27.959Z,101339.69
2023-01-07T12:17:33.991Z,101344.23
2023-01-07T12:18:48.515Z,101342.44
2023-01-07T12:20:11.050Z,101349.80
2023-01-07T12:21:34.690Z,101351.02
2023-01-07T12:22:40.454Z,101346.75
2023-01-07T12:24:12.060Z,101362.30
2023-01-07T12:26:46.411Z,101344.53
2023-01-07T12:28:01.323Z,101350.60
2023-01-07T12:29:19.254Z,101346.73
2023-01-07T12:30:25.168Z,101342.43
2023-01-07T12:31:56.998Z,101346.23
2023-01-07T12:33:13.026Z,101348.15
2023-01-07T12:34:24.730Z,101351.56
2023-01-07T12:35:33.679Z,101344.05
2023-01-07T12:36:51.647Z,101344.53
2023-01-07T12:38:05.401Z,101342.89
2023-01-07T12:39:32.485Z,101345.34
2023-01-07T12:40:55.491Z,101350.60
2023-01-07T12:42:10.060Z,101352.31
2023-01-07T12:43:34.001Z,101349.05
2023-01-07T12:44:39.676Z,101346.18
2023-01-07T12:45:48.405Z,101360.64
2023-01-07T12:46:54.352Z,101356.27
2023-01-07T12:48:02.961Z,101360.58
2023-01-07T12:49:27.017Z,101357.89
2023-01-07T12:50:38.814Z,101357.83
2023-01-07T12:51:44.511Z,101362.91
2023-01-07T12:52:58.565Z,101359.03
2023-01-07T12:54:13.769Z,101356.93
2023-01-07T12:55:19.561Z,101355.32
2023-01-07T12:56:37.162Z,101359.37
2023-01-07T12:57:41.588Z,101353.67
2023-01-07T12:58:47.441Z,101361.61
2023-01-07T13:00:24.067Z,101361.20
2023-01-07T13:01:47.655Z,101362.19
2023-01-07T13:02:59.135Z,101358.08
2023-01-07T13:04:07.821Z,101356.65
2023-01-07T13:05:22.405Z,101348.94
2023-01-07T13:06:46.111Z,101360.09
2023-01-07T13:09:20.045Z,101359.77
2023-01-07T13:10:33.225Z,101358.57
2023-01-07T13:11:55.301Z,101363.52
2023-01-07T13:13:01.086Z,101361.82
2023-01-07T13:14:04.988Z,101365.36
2023-01-07T13:15:28.902Z,101368.05
2023-01-07T13:16:31.588Z,101365.54
2023-01-07T13:17:33.609Z,101374.05
2023-01-07T13:18:36.453Z,101374.11
2023-01-07T13:19:38.626Z,101375.63
2023-01-07T13:20:59.544Z,101368.85
2023-01-07T13:22:02.883Z,101384.73
2023-01-07T13:23:05.337Z,101344.05
2023-01-07T13:24:54.874Z,101363.59
2023-01-07T13:27:29.746Z,101359.50
2023-01-07T13:28:47.847Z,101357.95
2023-01-07T13:30:02.822Z,101363.47
2023-01-07T13:31:08.717Z,101363.02
2023-01-07T13:32:35.461Z,101358.47
2023-01-07T13:33:53.212Z,101361.16
2023-01-07T13:35:20.128Z,101353.52
2023-01-07T13:36:26.067Z,101359.20
2023-01-07T13:37:55.537Z,101358.41
2023-01-07T13:39:04.648Z,101365.60
2023-01-07T13:40:33.485Z,101365.18
2023-01-07T13:42:14.427Z,101371.25
2023-01-07T13:43:29.458Z,101379.89
2023-01-07T13:44:38.285Z,101366.79
2023-01-07T13:45:42.621Z,101370.80
2023-01-07T13:46:46.392Z,101373.63
2023-01-07T13:47:52.138Z,101380.66
2023-01-07T13:48:54.364Z,101373.44
2023-01-07T13:49:59.647Z,101382.14
2023-01-07T13:51:04.923Z,101386.15
2023-01-07T13:52:21.758Z,101385.89
2023-01-07T13:53:27.515Z,101380.02
2023-01-07T13:54:51.599Z,101376.38
2023-01-07T13:55:56.511Z,101375.52
2023-01-07T13:57:01.494Z,101378.16
2023-01-07T13:58:23.758Z,101380.75
2023-01-07T13:59:31.014Z,101373.88
2023-01-07T14:00:40.365Z,101375.39
2023-01-07T14:02:15.475Z,101384.77
2023-01-07T14:03:27.170Z,101378.36
2023-01-07T14:04:34.902Z,101378.23
2023-01-07T14:05:37.050Z,101380.93
2023-01-07T14:06:42.157Z,101378.30
2023-01-07T14:07:50.357Z,101378.36
2023-01-07T14:09:09.321Z,101385.87
2023-01-07T14:10:21.100Z,101381.37
2023-01-07T14:11:32.593Z,101387.50
2023-01-07T14:12:47.243Z,101385.94
2023-01-07T14:14:01.506Z,101381.63
2023-01-07T14:15:16.479Z,101389.33
2023-01-07T14:16:34.379Z,101387.63
2023-01-07T14:17:51.924Z,101396.14
2023-01-07T14:19:09.890Z,101390.00
2023-01-07T14:20:19.645Z,101397.63
2023-01-07T14:21:44.063Z,101402.50
2023-01-07T14:22:53.871Z,101400.91
2023-01-07T14:24:02.371Z,101398.27
2023-01-07T14:25:16.929Z,101401.77
2023-01-07T14:26:44.674Z,101402.64
2023-01-07T14:28:08.765Z,101414.33
2023-01-07T14:29:20.635Z,101420.13
2023-01-07T14:30:32.627Z,101416.09
2023-01-07T14:31:35.832Z,101413.53
2023-01-07T14:32:40.412Z,101413.27
2023-01-07T14:33:50.385Z,101413.40
2023-01-07T14:34:55.985Z,101413.27
2023-01-07T14:36:01.283Z,101417.84
2023-01-07T14:37:09.536Z,101412.43
2023-01-07T14:38:33.426Z,101412.43
2023-01-07T14:39:41.022Z,101419.19
2023-01-07T14:40:46.985Z,101416.63
2023-01-07T14:42:18.918Z,101420.83
2023-01-07T14:44:52.483Z,101427.17
2023-01-07T14:45:54.791Z,101432.66
2023-01-07T14:46:57.536Z,101424.81
2023-01-07T14:47:59.947Z,101429.11
2023-01-07T14:49:05.589Z,101440.28
2023-01-07T14:50:32.101Z,101433.37
2023-01-07T14:51:58.699Z,101435.36
2023-01-07T14:53:21.363Z,101438.72
2023-01-07T14:54:48.671Z,101437.02
2023-01-07T14:55:57.075Z,101440.66
2023-01-07T14:57:36.931Z,101432.86
2023-01-07T14:58:54.497Z,101438.16
2023-01-07T15:00:34.439Z,101436.08
2023-01-07T15:02:06.768Z,101433.37
2023-01-07T15:03:18.432Z,101435.28
2023-01-07T15:04:36.429Z,101429.45
2023-01-07T15:06:12.557Z,101429.59
2023-01-07T15:07:21.950Z,101434.00
2023-01-07T15:08:27.763Z,101427.03
2023-01-07T15:09:42.488Z,101429.59
2023-01-07T15:10:49.891Z,101436.42